Time;durP1;ratioP1;P1;durP2;ratioP2;P2;SDS_P1;SDS_P2;PMS_P1;PMS_P2;Temp;Humidity;BMP_temperature;BMP_pressure;BME280_temperature;BME280_humidity;BME280_pressure;Samples;Min_cycle;Max_cycle;Signal;HPM_P1;HPM_P2
2021/07/02 00:00:51;;;;;;;10.70;9.80;;;19.20;99.90;;;;;;5078320;28;20477;-65
2021/07/02 00:03:18;;;;;;;11.27;9.97;;;19.20;99.90;;;;;;5078563;28;20468;-65
2021/07/02 00:05:45;;;;;;;11.50;10.40;;;19.20;99.90;;;;;;5078309;28;20473;-65
2021/07/02 00:08:12;;;;;;;11.60;10.23;;;19.10;99.90;;;;;;5076069;28;20468;-62
2021/07/02 00:10:39;;;;;;;11.23;9.53;;;19.10;99.90;;;;;;5069073;28;20470;-65
2021/07/02 00:13:07;;;;;;;12.73;11.13;;;19.20;99.90;;;;;;5065944;28;20473;-65
2021/07/02 00:15:34;;;;;;;14.10;11.67;;;19.20;99.90;;;;;;5072388;28;20803;-65
2021/07/02 00:18:01;;;;;;;13.17;11.87;;;19.20;99.90;;;;;;5078637;28;20549;-65
2021/07/02 00:20:28;;;;;;;15.80;14.23;;;19.20;99.90;;;;;;5078552;28;20487;-65
2021/07/02 00:22:55;;;;;;;17.20;14.20;;;19.20;99.90;;;;;;5076044;28;20457;-64
2021/07/02 00:25:22;;;;;;;15.87;13.70;;;19.20;99.90;;;;;;5078434;28;20474;-65
2021/07/02 00:27:49;;;;;;;16.03;14.27;;;19.20;99.90;;;;;;5078101;28;20542;-65
2021/07/02 00:30:18;;;;;;;16.50;14.70;;;19.20;99.90;;;;;;5078463;28;20473;-64
2021/07/02 00:32:45;;;;;;;14.90;13.10;;;19.20;99.90;;;;;;5071711;28;20918;-65
2021/07/02 00:35:12;;;;;;;17.30;15.27;;;19.20;99.90;;;;;;5077749;28;20466;-65
2021/07/02 00:37:39;;;;;;;17.37;13.20;;;19.20;99.90;;;;;;5061335;28;20469;-65
2021/07/02 00:40:07;;;;;;;19.30;15.00;;;19.20;99.90;;;;;;5075235;28;20465;-64
2021/07/02 00:42:34;;;;;;;20.07;14.90;;;19.20;99.90;;;;;;5064184;28;20468;-65
2021/07/02 00:45:01;;;;;;;18.23;14.27;;;19.30;99.90;;;;;;5074689;28;20465;-64
2021/07/02 00:47:29;;;;;;;19.23;16.70;;;19.30;99.90;;;;;;5072477;28;20481;-65
2021/07/02 00:49:56;;;;;;;20.03;16.50;;;19.30;99.90;;;;;;5073850;28;20465;-64
2021/07/02 00:52:23;;;;;;;19.00;15.40;;;19.30;99.90;;;;;;5074588;28;20462;-65
2021/07/02 00:54:52;;;;;;;19.17;16.03;;;19.30;99.90;;;;;;5074598;28;20473;-65
2021/07/02 00:57:19;;;;;;;20.53;16.77;;;19.30;99.90;;;;;;5074457;28;20480;-65
2021/07/02 00:59:46;;;;;;;24.80;17.63;;;19.30;99.90;;;;;;5069263;28;20473;-65
2021/07/02 01:02:13;;;;;;;22.20;18.30;;;19.30;99.90;;;;;;5074879;28;20479;-64
2021/07/02 01:04:42;;;;;;;22.47;17.30;;;19.30;99.90;;;;;;5074215;28;20465;-64
2021/07/02 01:07:11;;;;;;;20.63;16.70;;;19.30;99.90;;;;;;5074407;28;20480;-65
2021/07/02 01:09:38;;;;;;;21.27;16.30;;;19.30;99.90;;;;;;5068432;28;20466;-65
2021/07/02 01:12:06;;;;;;;22.63;17.20;;;19.30;99.90;;;;;;5074111;28;20963;-65
2021/07/02 01:14:33;;;;;;;20.80;18.07;;;19.30;99.90;;;;;;5074682;28;20862;-65
2021/07/02 01:17:00;;;;;;;25.53;19.40;;;19.40;99.90;;;;;;5074098;28;20788;-65
2021/07/02 01:19:27;;;;;;;24.90;18.33;;;19.30;99.90;;;;;;5073623;28;20474;-65
2021/07/02 01:21:56;;;;;;;23.87;19.70;;;19.40;99.90;;;;;;5073140;28;20465;-65
2021/07/02 01:24:23;;;;;;;23.77;17.40;;;19.40;99.90;;;;;;5066921;28;20472;-65
2021/07/02 01:26:52;;;;;;;25.43;18.40;;;19.40;99.90;;;;;;5073815;28;20478;-65
2021/07/02 01:29:21;;;;;;;20.50;18.30;;;19.40;99.90;;;;;;5074409;28;20462;-64
2021/07/02 01:31:48;;;;;;;25.43;19.33;;;19.40;99.90;;;;;;5073763;28;20590;-65
2021/07/02 01:34:14;;;;;;;22.03;18.53;;;19.40;99.90;;;;;;5060848;28;20817;-65
2021/07/02 01:36:41;;;;;;;21.90;18.90;;;19.40;99.90;;;;;;5074053;28;20469;-64
2021/07/02 01:39:10;;;;;;;23.67;20.03;;;19.40;99.90;;;;;;5073615;28;20485;-64
2021/07/02 01:41:37;;;;;;;23.83;18.33;;;19.40;99.90;;;;;;5073422;28;20481;-65
2021/07/02 01:44:05;;;;;;;27.67;21.63;;;19.40;99.90;;;;;;5073694;28;20929;-65
2021/07/02 01:46:32;;;;;;;25.67;19.47;;;19.40;99.90;;;;;;5071725;28;20481;-65
2021/07/02 01:48:59;;;;;;;20.70;18.50;;;19.50;99.90;;;;;;5066019;28;20473;-65
2021/07/02 01:51:26;;;;;;;22.80;19.93;;;19.50;99.90;;;;;;5073851;28;20493;-65
2021/07/02 01:53:52;;;;;;;20.33;18.33;;;19.40;99.90;;;;;;5073443;28;21069;-64
2021/07/02 01:56:21;;;;;;;24.43;18.57;;;19.50;99.90;;;;;;5073784;28;20465;-65
2021/07/02 01:58:48;;;;;;;21.63;19.43;;;19.50;99.90;;;;;;5072788;28;20481;-64
2021/07/02 02:01:15;;;;;;;20.30;17.97;;;19.50;99.90;;;;;;5073632;28;20466;-65
2021/07/02 02:03:42;;;;;;;19.80;17.63;;;19.50;99.90;;;;;;5073369;28;20474;-65
2021/07/02 02:06:09;;;;;;;18.73;16.40;;;19.50;99.90;;;;;;5072856;28;20462;-65
2021/07/02 02:08:36;;;;;;;20.63;18.43;;;19.50;99.90;;;;;;5073391;28;20485;-65
2021/07/02 02:11:03;;;;;;;21.43;18.70;;;19.50;99.90;;;;;;5073091;28;20474;-65
2021/07/02 02:13:31;;;;;;;18.87;17.07;;;19.50;99.90;;;;;;5067452;28;20465;-65
2021/07/02 02:15:58;;;;;;;25.57;18.53;;;19.60;99.90;;;;;;5072739;28;20470;-65
2021/07/02 02:18:25;;;;;;;21.90;18.77;;;19.60;99.90;;;;;;5073033;28;20489;-65
2021/07/02 02:20:52;;;;;;;22.20;19.67;;;19.60;99.90;;;;;;5072891;28;20469;-65
2021/07/02 02:23:19;;;;;;;29.43;23.20;;;19.60;99.90;;;;;;5072924;28;20481;-65
2021/07/02 02:25:46;;;;;;;20.77;18.57;;;19.60;99.90;;;;;;5072820;28;20482;-65
2021/07/02 02:28:13;;;;;;;19.17;17.27;;;19.60;99.90;;;;;;5073012;28;20528;-65
2021/07/02 02:30:41;;;;;;;22.03;19.17;;;19.60;99.90;;;;;;5072939;28;20473;-65
2021/07/02 02:33:11;;;;;;;23.13;20.13;;;19.60;99.90;;;;;;5071939;28;20473;-65
2021/07/02 02:35:38;;;;;;;19.70;17.70;;;19.70;99.90;;;;;;5072045;28;21006;-65
2021/07/02 02:38:05;;;;;;;19.30;16.50;;;19.70;99.90;;;;;;5072508;28;20485;-64
2021/07/02 02:40:33;;;;;;;21.43;16.97;;;19.70;99.90;;;;;;5073016;28;20477;-64
2021/07/02 02:43:00;;;;;;;20.87;17.27;;;19.70;99.90;;;;;;5072532;28;20499;-64
2021/07/02 02:45:26;;;;;;;20.50;18.50;;;19.70;99.90;;;;;;5072781;28;20480;-64
2021/07/02 02:47:55;;;;;;;20.97;17.27;;;19.70;99.90;;;;;;5064818;28;20494;-64
2021/07/02 02:50:22;;;;;;;17.50;15.70;;;19.70;99.90;;;;;;5072903;28;20481;-65
2021/07/02 02:52:49;;;;;;;18.83;16.50;;;19.70;99.90;;;;;;5072322;28;20482;-65
2021/07/02 02:55:15;;;;;;;17.37;15.57;;;19.70;99.90;;;;;;5072309;28;20462;-66
2021/07/02 02:57:42;;;;;;;19.67;15.03;;;19.70;99.90;;;;;;5072485;28;20544;-65
2021/07/02 03:00:12;;;;;;;16.87;15.10;;;19.70;99.90;;;;;;5071889;28;20984;-65
2021/07/02 03:02:39;;;;;;;16.57;14.80;;;19.80;99.90;;;;;;5062350;28;20470;-65
2021/07/02 03:05:08;;;;;;;18.93;16.87;;;19.80;99.90;;;;;;5071961;28;20496;-65
2021/07/02 03:07:35;;;;;;;16.00;14.07;;;19.80;99.90;;;;;;5072613;28;20486;-65
2021/07/02 03:10:01;;;;;;;15.97;14.43;;;19.80;99.90;;;;;;5068757;28;20818;-64
2021/07/02 03:12:28;;;;;;;16.73;15.03;;;19.80;99.90;;;;;;5069068;28;20786;-65
2021/07/02 03:14:55;;;;;;;16.97;15.23;;;19.80;99.90;;;;;;5072077;28;20495;-65
2021/07/02 03:17:22;;;;;;;14.70;13.23;;;19.80;99.90;;;;;;5072584;28;20466;-64
2021/07/02 03:19:49;;;;;;;14.97;13.60;;;19.80;99.90;;;;;;5072036;28;20478;-65
2021/07/02 03:22:18;;;;;;;13.97;12.67;;;19.80;99.90;;;;;;5059898;28;20473;-65
2021/07/02 03:24:45;;;;;;;14.03;12.80;;;19.80;99.90;;;;;;5051180;28;20474;-65
2021/07/02 03:27:13;;;;;;;17.23;15.60;;;19.80;99.90;;;;;;5051481;28;20466;-65
2021/07/02 03:29:40;;;;;;;13.60;12.30;;;19.80;99.90;;;;;;5052752;28;20973;-65
2021/07/02 03:32:09;;;;;;;13.03;11.57;;;19.80;99.90;;;;;;5051992;28;20481;-65
2021/07/02 03:34:36;;;;;;;13.93;12.73;;;19.80;99.90;;;;;;5051893;28;20968;-65
2021/07/02 03:37:03;;;;;;;14.27;13.03;;;19.80;99.90;;;;;;5050462;28;20474;-65
2021/07/02 03:39:31;;;;;;;13.83;12.53;;;19.80;99.90;;;;;;5050663;28;20471;-65
2021/07/02 03:41:58;;;;;;;12.40;10.77;;;19.80;99.90;;;;;;5050223;28;20520;-65
2021/07/02 03:44:25;;;;;;;12.87;11.67;;;19.80;99.90;;;;;;5050716;28;20953;-65
2021/07/02 03:46:52;;;;;;;14.03;12.63;;;19.80;99.90;;;;;;5050336;28;20478;-64
2021/07/02 03:49:19;;;;;;;14.50;13.17;;;19.80;99.90;;;;;;5050905;28;20490;-65
2021/07/02 03:51:46;;;;;;;15.03;13.37;;;19.80;99.90;;;;;;5052516;28;20806;-64
2021/07/02 03:54:13;;;;;;;13.53;12.33;;;19.90;99.90;;;;;;5051940;28;20478;-65
2021/07/02 03:57:10;;;;;;;12.13;11.07;;;19.90;99.90;;;;;;5052325;28;20467;-65
2021/07/02 03:59:28;;;;;;;16.50;12.37;;;19.90;99.90;;;;;;5052277;28;20864;-65
2021/07/02 04:01:56;;;;;;;12.90;11.60;;;19.90;99.90;;;;;;5051906;28;20466;-65
2021/07/02 04:04:23;;;;;;;12.50;10.63;;;19.90;99.90;;;;;;5052090;28;20463;-65
2021/07/02 04:06:50;;;;;;;10.80;9.70;;;19.90;99.90;;;;;;5051745;28;20478;-65
2021/07/02 04:09:17;;;;;;;11.07;9.10;;;19.90;99.90;;;;;;5063340;28;20477;-65
2021/07/02 04:11:46;;;;;;;11.30;10.13;;;19.90;99.90;;;;;;5071640;28;20809;-65
2021/07/02 04:14:13;;;;;;;11.37;10.33;;;19.90;99.90;;;;;;5061777;28;20466;-65
2021/07/02 04:16:39;;;;;;;12.37;11.23;;;19.90;99.90;;;;;;5055670;28;20463;-65
2021/07/02 04:19:06;;;;;;;13.10;11.73;;;19.90;99.90;;;;;;5055644;28;20462;-65
2021/07/02 04:21:34;;;;;;;12.90;10.40;;;19.90;99.90;;;;;;5056047;28;20812;-65
2021/07/02 04:24:01;;;;;;;12.50;11.30;;;19.90;99.90;;;;;;5055654;28;20936;-65
2021/07/02 04:26:28;;;;;;;12.47;11.30;;;19.90;99.90;;;;;;5055607;28;20467;-65
2021/07/02 04:28:56;;;;;;;12.17;10.97;;;19.90;99.90;;;;;;5055230;28;20501;-65
2021/07/02 04:31:23;;;;;;;9.73;8.83;;;19.90;99.90;;;;;;5055734;28;20832;-65
2021/07/02 04:33:50;;;;;;;11.13;10.03;;;19.90;99.90;;;;;;5055068;28;20471;-65
2021/07/02 04:36:17;;;;;;;13.40;12.00;;;19.90;99.90;;;;;;5055714;28;20463;-65
2021/07/02 04:38:44;;;;;;;11.70;10.63;;;19.90;99.90;;;;;;5055060;28;20466;-65
2021/07/02 04:41:11;;;;;;;10.70;9.63;;;19.90;99.90;;;;;;5055378;28;20475;-65
2021/07/02 04:43:38;;;;;;;11.77;10.63;;;19.90;99.90;;;;;;5055098;28;20467;-65
2021/07/02 04:46:06;;;;;;;10.90;9.80;;;19.90;99.90;;;;;;5055306;28;20576;-65
2021/07/02 04:48:34;;;;;;;11.50;10.50;;;19.90;99.90;;;;;;5055301;28;20473;-65
2021/07/02 04:51:01;;;;;;;13.20;10.33;;;19.90;99.90;;;;;;5054975;28;20936;-64
2021/07/02 04:53:27;;;;;;;10.40;9.50;;;19.90;99.90;;;;;;5055164;28;20475;-65
2021/07/02 04:55:54;;;;;;;10.83;9.73;;;19.90;99.90;;;;;;5054730;28;20554;-65
2021/07/02 04:58:21;;;;;;;11.43;10.33;;;19.90;99.90;;;;;;5055173;28;20474;-65
2021/07/02 05:00:48;;;;;;;12.23;10.33;;;19.90;99.90;;;;;;5054724;28;20471;-65
2021/07/02 05:03:17;;;;;;;9.97;8.83;;;19.90;99.90;;;;;;5055011;28;20463;-65
2021/07/02 05:05:44;;;;;;;11.07;10.17;;;19.90;99.90;;;;;;5054564;28;20467;-65
2021/07/02 05:08:13;;;;;;;10.30;9.20;;;19.90;99.90;;;;;;5057035;28;20471;-65
2021/07/02 05:10:42;;;;;;;11.73;9.67;;;19.90;99.90;;;;;;5074539;28;20983;-65
2021/07/02 05:13:09;;;;;;;9.50;8.60;;;19.90;99.90;;;;;;5069815;28;20478;-65
2021/07/02 05:15:37;;;;;;;9.70;8.70;;;20.00;99.90;;;;;;5054726;28;20525;-64
2021/07/02 05:18:05;;;;;;;9.00;8.20;;;20.00;99.90;;;;;;5054334;28;20474;-66
2021/07/02 05:20:36;;;;;;;8.40;7.70;;;20.00;99.90;;;;;;5054952;28;20969;-66
2021/07/02 05:23:03;;;;;;;9.93;8.93;;;20.00;99.90;;;;;;5053737;28;20973;-65
2021/07/02 05:25:31;;;;;;;10.10;9.20;;;20.10;99.90;;;;;;5054642;28;20463;-64
2021/07/02 05:27:58;;;;;;;9.10;8.30;;;20.10;99.90;;;;;;5054039;28;20973;-64
2021/07/02 05:30:26;;;;;;;10.00;9.10;;;20.10;99.90;;;;;;5054583;28;20478;-65
2021/07/02 05:32:54;;;;;;;8.53;7.73;;;20.20;99.90;;;;;;5054037;28;20467;-65
2021/07/02 05:35:21;;;;;;;12.00;10.83;;;20.20;99.90;;;;;;5054406;28;20478;-66
2021/07/02 05:37:49;;;;;;;10.50;9.50;;;20.20;99.90;;;;;;5053924;28;20960;-65
2021/07/02 05:40:17;;;;;;;8.20;7.40;;;20.20;99.90;;;;;;5054393;28;20467;-66
2021/07/02 05:42:44;;;;;;;12.40;11.10;;;20.30;99.90;;;;;;5054093;28;20475;-66
2021/07/02 05:45:12;;;;;;;10.90;9.23;;;20.30;99.90;;;;;;5054263;28;20470;-65
2021/07/02 05:47:45;;;;;;;12.00;10.83;;;20.30;99.90;;;;;;5054046;28;20487;-65
2021/07/02 05:50:12;;;;;;;11.77;10.40;;;20.30;99.90;;;;;;5053957;28;20566;-65
2021/07/02 05:52:39;;;;;;;12.20;10.10;;;20.40;99.90;;;;;;5054122;28;20947;-65
2021/07/02 05:55:08;;;;;;;9.33;8.53;;;20.40;99.90;;;;;;5053732;28;20475;-65
2021/07/02 05:57:35;;;;;;;10.50;9.50;;;20.40;99.90;;;;;;5053944;28;20486;-65
2021/07/02 06:00:03;;;;;;;10.70;9.47;;;20.40;99.90;;;;;;5053584;28;20855;-65
2021/07/02 06:02:30;;;;;;;10.17;9.27;;;20.40;99.90;;;;;;5054116;28;20470;-65
2021/07/02 06:04:57;;;;;;;9.40;8.60;;;20.50;99.90;;;;;;5053554;28;20459;-65
2021/07/02 06:07:24;;;;;;;9.00;8.20;;;20.50;99.90;;;;;;5053640;28;20470;-65
2021/07/02 06:09:51;;;;;;;9.67;8.80;;;20.60;99.90;;;;;;5069336;28;20527;-65
2021/07/02 06:12:19;;;;;;;10.37;9.47;;;20.70;99.90;;;;;;5058840;28;20478;-65
2021/07/02 06:14:46;;;;;;;9.47;8.73;;;20.80;99.90;;;;;;5071726;28;20470;-65
2021/07/02 06:17:13;;;;;;;11.33;9.00;;;20.80;99.90;;;;;;5072607;28;20470;-65
2021/07/02 06:19:40;;;;;;;10.27;8.97;;;20.90;99.90;;;;;;5073087;28;20470;-65
2021/07/02 06:22:06;;;;;;;10.10;9.07;;;21.00;99.90;;;;;;5071614;28;20535;-65
2021/07/02 06:24:34;;;;;;;11.10;8.97;;;21.20;99.90;;;;;;5073582;28;20517;-65
2021/07/02 06:27:01;;;;;;;10.50;8.93;;;21.40;99.90;;;;;;5072734;28;20520;-65
2021/07/02 06:29:29;;;;;;;9.33;8.43;;;21.60;99.90;;;;;;5073126;28;20470;-65
2021/07/02 06:32:04;;;;;;;8.90;8.20;;;21.60;99.90;;;;;;5072923;28;20466;-65
2021/07/02 06:34:31;;;;;;;10.73;9.57;;;21.70;99.90;;;;;;5072829;28;20470;-65
2021/07/02 06:36:58;;;;;;;9.67;8.77;;;21.70;99.90;;;;;;5072302;28;20466;-65
2021/07/02 06:39:25;;;;;;;9.93;8.77;;;21.60;99.90;;;;;;5073064;28;20485;-64
2021/07/02 06:41:52;;;;;;;8.73;8.03;;;21.60;99.90;;;;;;5072797;28;20825;-65
2021/07/02 06:44:19;;;;;;;7.93;7.33;;;21.60;99.90;;;;;;5072983;28;20462;-65
2021/07/02 06:46:47;;;;;;;7.53;7.03;;;21.60;99.90;;;;;;5073087;28;20481;-64
2021/07/02 06:49:14;;;;;;;7.67;7.00;;;21.60;99.90;;;;;;5072458;28;20474;-65
2021/07/02 06:51:41;;;;;;;7.60;6.77;;;21.70;99.90;;;;;;5072973;28;20482;-66
2021/07/02 06:54:08;;;;;;;8.07;7.37;;;21.70;99.90;;;;;;5072607;28;20462;-65
2021/07/02 06:56:35;;;;;;;8.43;7.63;;;21.90;99.90;;;;;;5072943;28;20458;-66
2021/07/02 06:59:02;;;;;;;7.27;6.57;;;22.10;99.90;;;;;;5072340;28;20474;-66
2021/07/02 07:01:29;;;;;;;7.50;6.73;;;22.20;99.90;;;;;;5073019;28;20470;-66
2021/07/02 07:03:58;;;;;;;6.93;6.23;;;22.40;99.90;;;;;;5072397;28;20474;-64
2021/07/02 07:06:25;;;;;;;6.70;6.10;;;22.50;99.90;;;;;;5072686;28;20480;-66
2021/07/02 07:08:52;;;;;;;6.50;5.97;;;22.60;99.90;;;;;;5072758;28;20508;-66
2021/07/02 07:11:19;;;;;;;7.37;6.77;;;22.70;99.90;;;;;;5072335;28;20473;-66
2021/07/02 07:13:46;;;;;;;10.20;6.20;;;22.70;99.90;;;;;;5072645;28;20470;-65
2021/07/02 07:16:13;;;;;;;6.50;6.00;;;22.70;99.90;;;;;;5072310;28;20455;-64
2021/07/02 07:18:40;;;;;;;7.53;6.53;;;22.60;99.90;;;;;;5072380;28;20466;-64
2021/07/02 07:21:08;;;;;;;6.97;6.27;;;22.60;99.90;;;;;;5072212;28;20817;-65
2021/07/02 07:23:39;;;;;;;6.10;5.50;;;22.70;99.90;;;;;;5072582;28;20466;-65
2021/07/02 07:26:06;;;;;;;6.83;6.07;;;22.90;99.90;;;;;;5072060;28;20470;-65
2021/07/02 07:28:33;;;;;;;7.17;6.00;;;23.00;99.90;;;;;;5072409;28;20469;-65
2021/07/02 07:31:00;;;;;;;8.10;6.80;;;23.20;99.90;;;;;;5072088;28;20477;-67
2021/07/02 07:33:29;;;;;;;7.37;6.73;;;23.30;99.90;;;;;;5072300;28;20800;-65
2021/07/02 07:35:56;;;;;;;7.87;5.93;;;23.50;99.90;;;;;;5072005;28;20463;-66
2021/07/02 07:38:24;;;;;;;8.27;7.47;;;23.60;99.90;;;;;;5072255;28;20466;-66
2021/07/02 07:40:52;;;;;;;8.87;8.07;;;23.80;99.90;;;;;;5072343;28;20777;-66
2021/07/02 07:43:22;;;;;;;10.20;9.20;;;23.90;99.90;;;;;;5072079;28;20462;-65
2021/07/02 07:45:49;;;;;;;7.20;6.60;;;24.10;99.90;;;;;;5072352;28;20991;-66
2021/07/02 07:48:15;;;;;;;6.60;6.00;;;24.30;99.90;;;;;;5075361;28;20539;-65
2021/07/02 07:50:44;;;;;;;7.47;6.77;;;24.40;99.90;;;;;;5076576;28;20631;-65
2021/07/02 07:53:11;;;;;;;7.63;6.90;;;24.50;99.90;;;;;;5075921;28;20794;-65
2021/07/02 07:55:40;;;;;;;6.03;5.53;;;24.60;99.90;;;;;;5076259;28;20470;-65
2021/07/02 07:58:07;;;;;;;6.03;5.53;;;24.70;99.90;;;;;;5075839;28;20470;-66
2021/07/02 08:00:34;;;;;;;9.27;8.37;;;24.80;99.90;;;;;;5076215;28;20469;-65
2021/07/02 08:03:01;;;;;;;7.03;6.40;;;24.90;99.80;;;;;;5075738;28;20462;-65
2021/07/02 08:05:29;;;;;;;6.90;6.20;;;24.90;99.60;;;;;;5076221;28;20539;-65
2021/07/02 08:07:56;;;;;;;9.53;7.67;;;24.90;99.30;;;;;;5075784;28;20549;-66
2021/07/02 08:10:26;;;;;;;8.67;7.83;;;24.90;99.50;;;;;;5075727;28;20469;-65
2021/07/02 08:12:54;;;;;;;7.50;6.90;;;24.80;99.40;;;;;;5075954;28;20482;-66
2021/07/02 08:15:21;;;;;;;7.33;6.73;;;24.80;99.30;;;;;;5075276;28;20493;-65
2021/07/02 08:17:48;;;;;;;7.37;6.50;;;24.60;99.40;;;;;;5075610;28;20481;-65
2021/07/02 08:20:18;;;;;;;6.60;6.03;;;24.60;99.90;;;;;;5075364;28;20474;-65
2021/07/02 08:22:45;;;;;;;7.80;7.00;;;24.60;99.90;;;;;;5075786;28;20480;-65
2021/07/02 08:25:12;;;;;;;7.07;6.57;;;24.60;99.90;;;;;;5075250;28;20466;-65
2021/07/02 08:30:25;;;;;;;6.63;6.03;;;24.80;99.90;;;;;;5075424;28;20457;-64
2021/07/02 08:32:52;;;;;;;6.73;6.13;;;24.90;99.30;;;;;;5075453;28;20466;-64
2021/07/02 08:35:22;;;;;;;8.40;6.73;;;24.80;99.00;;;;;;5075123;28;20462;-64
2021/07/02 08:37:52;;;;;;;5.83;5.40;;;24.80;98.80;;;;;;5075479;28;20473;-66
2021/07/02 08:40:20;;;;;;;7.10;6.50;;;24.90;98.40;;;;;;5075021;28;20466;-65
2021/07/02 08:42:47;;;;;;;6.10;5.50;;;24.90;98.40;;;;;;5075331;28;20462;-66
2021/07/02 08:45:14;;;;;;;7.43;6.80;;;24.90;98.20;;;;;;5074875;28;20458;-66
2021/07/02 08:47:43;;;;;;;7.73;6.63;;;24.90;98.00;;;;;;5075225;28;20463;-66
2021/07/02 08:50:11;;;;;;;8.10;7.00;;;25.00;97.10;;;;;;5074846;28;20466;-66
2021/07/02 08:52:38;;;;;;;7.03;6.40;;;25.00;96.80;;;;;;5075409;28;20462;-66
2021/07/02 08:55:05;;;;;;;8.30;6.03;;;25.00;96.70;;;;;;5074866;28;20481;-66
2021/07/02 08:57:33;;;;;;;6.57;6.07;;;25.20;96.60;;;;;;5074985;28;20849;-66
2021/07/02 09:00:00;;;;;;;5.63;5.13;;;25.20;96.10;;;;;;5074608;28;20454;-66
2021/07/02 09:02:29;;;;;;;6.60;5.57;;;25.20;96.40;;;;;;5074868;28;20517;-66
2021/07/02 09:04:57;;;;;;;6.07;5.57;;;25.10;97.30;;;;;;5074932;28;20498;-67
2021/07/02 09:07:24;;;;;;;8.00;7.20;;;25.10;97.00;;;;;;5074524;28;20471;-66
2021/07/02 09:09:55;;;;;;;8.10;7.30;;;25.00;97.00;;;;;;5075014;28;20574;-66
2021/07/02 09:12:25;;;;;;;6.93;6.23;;;25.00;96.90;;;;;;5074252;28;20475;-66
2021/07/02 09:15:14;;;;;;;6.90;5.60;;;25.00;96.10;;;;;;5074888;28;20462;-66
2021/07/02 09:17:55;;;;;;;6.07;5.57;;;25.00;96.00;;;;;;5070670;28;20465;-66
2021/07/02 09:20:25;;;;;;;6.87;6.27;;;25.00;95.80;;;;;;5075119;28;20492;-66
2021/07/02 09:22:53;;;;;;;6.33;5.70;;;24.90;95.20;;;;;;5074359;28;20873;-66
2021/07/02 09:25:29;;;;;;;6.90;6.30;;;24.90;95.30;;;;;;5074601;28;20485;-66
2021/07/02 09:27:59;;;;;;;5.93;5.43;;;24.90;95.40;;;;;;5074213;28;20460;-67
2021/07/02 09:30:28;;;;;;;6.47;5.90;;;25.00;95.60;;;;;;5074496;28;20477;-66
2021/07/02 09:32:57;;;;;;;6.80;6.17;;;25.00;95.70;;;;;;5073957;28;20457;-66
2021/07/02 09:35:32;;;;;;;6.30;5.70;;;25.00;95.40;;;;;;5074681;28;20473;-66
2021/07/02 09:38:01;;;;;;;5.67;5.07;;;25.00;94.40;;;;;;5074140;28;20462;-66
2021/07/02 09:40:31;;;;;;;5.50;5.10;;;25.10;93.80;;;;;;5074382;28;20518;-66
2021/07/02 09:43:06;;;;;;;6.40;5.80;;;25.10;93.80;;;;;;5073903;28;20962;-66
2021/07/02 09:45:35;;;;;;;5.80;5.30;;;25.20;94.10;;;;;;5074228;28;20466;-66
2021/07/02 09:48:09;;;;;;;6.53;5.87;;;25.20;94.40;;;;;;5073488;28;20458;-67
2021/07/02 09:50:38;;;;;;;7.40;6.80;;;25.20;94.90;;;;;;5073975;28;20480;-66
2021/07/02 09:53:10;;;;;;;6.90;6.30;;;25.30;94.80;;;;;;5073862;28;21036;-66
2021/07/02 09:55:43;;;;;;;8.20;7.50;;;25.30;94.40;;;;;;5074086;28;20478;-66
2021/07/02 09:58:11;;;;;;;7.87;7.20;;;25.40;94.20;;;;;;5073658;28;20454;-65
2021/07/02 10:00:43;;;;;;;6.30;5.70;;;25.40;94.10;;;;;;5074063;28;20807;-66
2021/07/02 10:03:11;;;;;;;6.13;5.63;;;25.40;94.00;;;;;;5073486;28;21284;-66
2021/07/02 10:05:50;;;;;;;6.27;5.70;;;25.40;94.20;;;;;;5073833;28;20466;-65
2021/07/02 10:08:18;;;;;;;7.47;6.57;;;25.40;94.10;;;;;;5073360;28;20470;-66
2021/07/02 10:10:45;;;;;;;6.90;6.30;;;25.40;94.20;;;;;;5073626;28;20535;-66
2021/07/02 10:13:12;;;;;;;6.57;6.00;;;25.30;94.00;;;;;;5073161;28;20474;-66
2021/07/02 10:15:45;;;;;;;7.23;5.60;;;25.40;94.70;;;;;;5073715;28;20466;-66
2021/07/02 10:18:14;;;;;;;5.77;5.37;;;25.40;93.70;;;;;;5073040;28;20486;-66
2021/07/02 10:20:43;;;;;;;5.77;5.27;;;25.40;93.30;;;;;;5073717;28;20485;-66
2021/07/02 10:23:13;;;;;;;5.93;5.53;;;25.30;93.00;;;;;;5072940;28;20462;-66
2021/07/02 10:25:42;;;;;;;6.77;5.57;;;25.30;93.40;;;;;;5073492;28;20964;-66
2021/07/02 10:28:12;;;;;;;8.30;7.60;;;25.30;93.60;;;;;;5072889;28;20597;-65
2021/07/02 10:30:41;;;;;;;7.13;6.43;;;25.20;93.80;;;;;;5073381;28;20502;-66
2021/07/02 10:33:08;;;;;;;9.83;7.07;;;25.20;94.10;;;;;;5072681;28;20466;-66
2021/07/02 10:35:36;;;;;;;6.80;6.20;;;25.20;94.30;;;;;;5073354;28;20474;-66
2021/07/02 10:38:04;;;;;;;7.20;6.60;;;25.30;94.10;;;;;;5072828;28;20892;-65
2021/07/02 10:40:41;;;;;;;6.63;6.03;;;25.30;94.10;;;;;;5073166;28;20472;-66
2021/07/02 10:43:17;;;;;;;6.87;6.30;;;25.30;92.80;;;;;;5072687;28;20462;-66
2021/07/02 10:46:10;;;;;;;6.33;5.80;;;25.30;92.70;;;;;;5073145;28;20470;-66
2021/07/02 10:48:58;;;;;;;7.00;6.03;;;25.40;93.20;;;;;;5072755;28;20458;-66
2021/07/02 10:51:44;;;;;;;6.50;5.90;;;25.40;92.90;;;;;;5072943;28;20485;-66
2021/07/02 10:54:33;;;;;;;6.50;5.90;;;25.40;92.40;;;;;;5073366;28;20485;-65
2021/07/02 10:57:17;;;;;;;6.10;5.60;;;25.40;92.20;;;;;;5073125;28;20961;-66
2021/07/02 11:00:10;;;;;;;7.03;6.33;;;25.40;92.20;;;;;;5072907;28;20812;-66
2021/07/02 11:02:37;;;;;;;6.10;5.60;;;25.40;91.90;;;;;;5073151;28;21089;-65
2021/07/02 11:05:26;;;;;;;5.43;5.00;;;25.40;91.70;;;;;;5072527;28;20530;-65
2021/07/02 11:07:54;;;;;;;6.60;6.10;;;25.40;91.80;;;;;;5072271;28;20498;-65
2021/07/02 11:10:22;;;;;;;5.90;5.40;;;25.40;91.60;;;;;;5072774;28;20462;-65
2021/07/02 11:13:09;;;;;;;5.70;5.30;;;25.50;91.60;;;;;;5072080;28;20473;-65
2021/07/02 11:15:36;;;;;;;6.23;5.73;;;25.50;93.40;;;;;;5072733;28;20470;-65
2021/07/02 11:18:14;;;;;;;6.63;5.93;;;25.40;92.20;;;;;;5072215;28;20466;-65
2021/07/02 11:20:42;;;;;;;7.20;6.50;;;25.50;92.10;;;;;;5072364;28;20490;-66
2021/07/02 11:23:21;;;;;;;6.37;5.77;;;25.50;91.70;;;;;;5072318;28;20487;-66
2021/07/02 11:25:52;;;;;;;5.07;4.67;;;25.50;91.50;;;;;;5072190;28;20466;-65
2021/07/02 11:28:40;;;;;;;5.90;5.40;;;25.50;91.60;;;;;;5072431;28;20463;-65
2021/07/02 11:31:09;;;;;;;5.40;4.77;;;25.60;91.90;;;;;;5072498;28;21228;-66
2021/07/02 11:33:37;;;;;;;5.90;5.40;;;25.60;91.30;;;;;;5072390;28;20473;-65
2021/07/02 11:36:09;;;;;;;6.00;5.00;;;25.60;90.90;;;;;;5072060;28;20450;-65
2021/07/02 11:38:46;;;;;;;8.90;5.77;;;25.60;90.80;;;;;;5072420;28;20473;-65
2021/07/02 11:41:25;;;;;;;5.37;4.93;;;25.60;91.00;;;;;;5072032;28;20480;-66
2021/07/02 11:43:56;;;;;;;6.00;5.50;;;25.60;91.20;;;;;;5072037;28;20470;-66
2021/07/02 11:46:23;;;;;;;5.13;4.70;;;25.70;91.10;;;;;;5072301;28;20984;-65
2021/07/02 11:48:51;;;;;;;4.70;4.30;;;25.70;91.40;;;;;;5071717;28;20899;-65
2021/07/02 11:51:22;;;;;;;5.90;5.40;;;25.70;92.10;;;;;;5072240;28;20469;-65
2021/07/02 11:53:51;;;;;;;5.63;5.23;;;25.80;92.10;;;;;;5072346;28;20805;-66
2021/07/02 11:56:19;;;;;;;6.40;5.77;;;25.90;91.80;;;;;;5071995;28;21252;-65
2021/07/02 11:58:48;;;;;;;5.50;5.10;;;25.90;91.20;;;;;;5072258;28;20463;-65
2021/07/02 12:01:18;;;;;;;6.27;5.60;;;26.00;91.30;;;;;;5071798;28;20454;-67
2021/07/02 12:03:48;;;;;;;6.90;6.23;;;26.00;90.90;;;;;;5071996;28;20499;-66
2021/07/02 12:06:25;;;;;;;5.70;4.60;;;26.00;90.80;;;;;;5071763;28;20462;-65
2021/07/02 12:08:54;;;;;;;6.53;5.43;;;26.00;91.70;;;;;;5072175;28;20856;-65
2021/07/02 12:11:33;;;;;;;5.33;4.83;;;26.00;91.20;;;;;;5071773;28;20818;-65
2021/07/02 12:14:01;;;;;;;5.83;5.43;;;26.00;90.90;;;;;;5071743;28;20465;-65
2021/07/02 12:16:32;;;;;;;4.73;4.33;;;26.00;90.60;;;;;;5072165;28;20470;-65
2021/07/02 12:19:00;;;;;;;6.93;6.23;;;26.00;91.20;;;;;;5071688;28;20471;-65
2021/07/02 12:21:30;;;;;;;7.40;6.77;;;26.00;90.70;;;;;;5072064;28;20466;-65
2021/07/02 12:24:03;;;;;;;6.57;6.07;;;26.00;90.60;;;;;;5071624;28;20527;-65
2021/07/02 12:26:32;;;;;;;6.67;5.93;;;26.00;90.60;;;;;;5072207;28;20847;-66
2021/07/02 12:29:06;;;;;;;6.60;6.03;;;25.90;90.70;;;;;;5071393;28;20474;-66
2021/07/02 12:31:36;;;;;;;5.90;5.40;;;25.90;90.90;;;;;;5071890;28;20465;-65
2021/07/02 12:34:04;;;;;;;5.17;4.70;;;25.90;90.90;;;;;;5072997;28;20482;-65
2021/07/02 12:36:33;;;;;;;5.37;4.87;;;25.80;90.80;;;;;;5075608;28;20540;-66
2021/07/02 12:39:10;;;;;;;4.60;4.30;;;25.80;91.40;;;;;;5070737;28;20467;-65
2021/07/02 12:41:39;;;;;;;4.93;4.63;;;25.70;93.20;;;;;;5054647;28;20940;-65
2021/07/02 12:44:07;;;;;;;6.00;4.47;;;25.60;92.90;;;;;;5068427;28;20458;-65
2021/07/02 12:46:36;;;;;;;5.40;4.90;;;25.60;92.50;;;;;;5074587;28;20473;-66
2021/07/02 12:49:29;;;;;;;5.47;5.07;;;25.60;92.40;;;;;;5073765;28;20474;-65